createdAt,value
2017-10-15T00:00:45.426Z,65.40
2017-10-15T00:03:13.687Z,65.50
2017-10-15T00:05:41.963Z,66.50
2017-10-15T00:08:09.425Z,65.50
2017-10-15T00:10:37.658Z,65.70
2017-10-15T00:13:05.154Z,65.40
2017-10-15T00:15:32.624Z,65.50
2017-10-15T00:18:00.208Z,65.60
2017-10-15T00:20:27.685Z,66.00
2017-10-15T00:22:55.173Z,65.60
2017-10-15T00:25:22.630Z,65.70
2017-10-15T00:27:50.090Z,65.70
2017-10-15T00:30:17.594Z,65.60
2017-10-15T00:32:45.075Z,65.60
2017-10-15T00:35:12.572Z,65.60
2017-10-15T00:37:40.054Z,65.70
2017-10-15T00:40:07.539Z,65.70
2017-10-15T00:42:34.994Z,65.50
2017-10-15T00:45:02.498Z,65.80
2017-10-15T00:47:31.382Z,66.00
2017-10-15T00:49:58.861Z,66.00
2017-10-15T00:52:26.343Z,65.90
2017-10-15T00:54:54.593Z,66.00
2017-10-15T00:57:22.059Z,66.00
2017-10-15T00:59:49.545Z,66.00
2017-10-15T01:02:17.805Z,66.10
2017-10-15T01:04:46.044Z,66.10
2017-10-15T01:07:13.522Z,66.00
2017-10-15T01:09:41.014Z,66.20
2017-10-15T01:12:09.277Z,66.30
2017-10-15T01:14:37.524Z,66.30
2017-10-15T01:17:05.001Z,66.30
2017-10-15T01:19:32.470Z,66.30
2017-10-15T01:22:01.642Z,66.20
2017-10-15T01:24:29.114Z,66.20
2017-10-15T01:26:56.606Z,66.20
2017-10-15T01:29:24.169Z,66.30
2017-10-15T01:31:51.653Z,66.40
2017-10-15T01:34:19.124Z,66.70
2017-10-15T01:36:46.661Z,67.60
2017-10-15T01:39:14.117Z,67.90
2017-10-15T01:41:41.579Z,68.20
2017-10-15T01:44:09.072Z,68.70
2017-10-15T01:46:37.338Z,69.10
2017-10-15T01:49:04.811Z,69.10
2017-10-15T01:51:32.306Z,69.20
2017-10-15T01:53:59.771Z,69.40
2017-10-15T01:56:27.253Z,69.50
2017-10-15T01:58:54.760Z,69.70
2017-10-15T02:01:22.221Z,70.00
2017-10-15T02:03:50.474Z,70.40
2017-10-15T02:06:17.970Z,70.40
2017-10-15T02:08:45.442Z,70.60
2017-10-15T02:11:12.920Z,70.80
2017-10-15T02:13:40.412Z,70.90
2017-10-15T02:16:07.934Z,70.90
2017-10-15T02:18:35.405Z,71.00
2017-10-15T02:21:02.868Z,71.00
2017-10-15T02:23:30.364Z,71.00
2017-10-15T02:25:58.605Z,71.10
2017-10-15T02:28:26.069Z,71.10
2017-10-15T02:30:53.553Z,71.00
2017-10-15T02:33:21.795Z,71.00
2017-10-15T02:35:49.305Z,71.00
2017-10-15T02:38:17.535Z,71.00
2017-10-15T02:40:45.007Z,71.00
2017-10-15T02:43:12.505Z,71.10
2017-10-15T02:45:39.990Z,71.20
2017-10-15T02:48:07.474Z,71.40
2017-10-15T02:50:34.969Z,71.40
2017-10-15T02:53:02.963Z,71.50
2017-10-15T02:55:30.426Z,71.60
2017-10-15T02:57:57.890Z,71.50
2017-10-15T03:00:25.372Z,71.60
2017-10-15T03:02:53.007Z,71.70
2017-10-15T03:05:20.498Z,71.80
2017-10-15T03:07:47.975Z,71.80
2017-10-15T03:10:15.436Z,71.70
2017-10-15T03:12:42.934Z,71.70
2017-10-15T03:15:10.402Z,71.70
2017-10-15T03:17:37.906Z,71.80
2017-10-15T03:20:05.378Z,71.80
2017-10-15T03:22:33.668Z,71.80
2017-10-15T03:25:01.158Z,71.80
2017-10-15T03:27:28.626Z,72.60
2017-10-15T03:29:56.114Z,71.90
2017-10-15T03:32:23.578Z,71.90
2017-10-15T03:34:51.038Z,72.70
2017-10-15T03:37:18.534Z,72.00
2017-10-15T03:39:46.034Z,71.90
2017-10-15T03:42:13.562Z,72.00
2017-10-15T03:44:41.034Z,71.90
2017-10-15T03:47:08.498Z,71.90
2017-10-15T03:49:36.050Z,72.00
2017-10-15T03:52:04.192Z,71.90
2017-10-15T03:54:31.681Z,72.80
2017-10-15T03:56:59.170Z,72.00
2017-10-15T03:59:26.674Z,72.00
2017-10-15T04:01:54.162Z,72.10
2017-10-15T04:04:21.912Z,72.10
2017-10-15T04:06:49.782Z,72.10
2017-10-15T04:09:17.450Z,72.10
2017-10-15T04:11:45.235Z,72.10
2017-10-15T04:14:12.711Z,72.10
2017-10-15T04:16:40.215Z,72.20
2017-10-15T04:19:07.770Z,72.20
2017-10-15T04:21:35.255Z,72.20
2017-10-15T04:24:02.770Z,72.10
2017-10-15T04:26:30.246Z,72.20
2017-10-15T04:28:57.717Z,72.40
2017-10-15T04:31:25.214Z,72.30
2017-10-15T04:33:52.716Z,72.30
2017-10-15T04:36:20.981Z,72.30
2017-10-15T04:38:49.216Z,72.30
2017-10-15T04:41:16.717Z,72.30
2017-10-15T04:43:44.949Z,72.40
2017-10-15T04:46:12.430Z,72.40
2017-10-15T04:48:39.956Z,72.30
2017-10-15T04:51:07.413Z,72.40
2017-10-15T04:53:35.406Z,72.30
2017-10-15T04:56:02.881Z,72.30
2017-10-15T04:58:30.350Z,72.20
2017-10-15T05:00:58.607Z,72.10
2017-10-15T05:03:26.077Z,71.90
2017-10-15T05:05:53.563Z,71.90
2017-10-15T05:08:21.045Z,71.90
2017-10-15T05:10:48.538Z,71.90
2017-10-15T05:13:16.030Z,71.90
2017-10-15T05:15:43.505Z,71.90
2017-10-15T05:18:11.005Z,72.00
2017-10-15T05:20:39.245Z,72.00
2017-10-15T05:23:06.742Z,72.00
2017-10-15T05:25:34.204Z,72.00
2017-10-15T05:28:01.686Z,71.90
2017-10-15T05:30:29.166Z,72.00
2017-10-15T05:32:56.626Z,72.20
2017-10-15T05:35:24.118Z,72.10
2017-10-15T05:37:51.571Z,72.20
2017-10-15T05:40:19.028Z,72.20
2017-10-15T05:42:46.542Z,72.10
2017-10-15T05:45:14.774Z,72.30
2017-10-15T05:47:42.253Z,72.30
2017-10-15T05:50:09.762Z,72.30
2017-10-15T05:52:37.313Z,72.40
2017-10-15T05:55:04.782Z,72.20
2017-10-15T05:57:32.273Z,72.30
2017-10-15T05:59:59.745Z,72.30
2017-10-15T06:02:27.233Z,72.30
2017-10-15T06:04:54.725Z,72.10
2017-10-15T06:07:22.245Z,72.30
2017-10-15T06:09:50.533Z,72.30
2017-10-15T06:12:18.757Z,72.30
2017-10-15T06:14:46.238Z,72.20
2017-10-15T06:17:13.705Z,72.30
2017-10-15T06:19:41.159Z,72.30
2017-10-15T06:22:08.653Z,72.20
2017-10-15T06:24:37.038Z,72.10
2017-10-15T06:27:04.497Z,72.10
2017-10-15T06:29:31.986Z,72.10
2017-10-15T06:31:59.471Z,72.00
2017-10-15T06:34:26.967Z,72.00
2017-10-15T06:36:54.445Z,72.00
2017-10-15T06:39:21.947Z,71.90
2017-10-15T06:41:49.407Z,71.80
2017-10-15T06:44:16.866Z,71.80
2017-10-15T06:46:44.361Z,71.80
2017-10-15T06:49:11.828Z,71.80
2017-10-15T06:51:39.354Z,71.80
2017-10-15T06:54:08.511Z,71.60
2017-10-15T06:56:35.982Z,71.70
2017-10-15T06:59:03.490Z,71.70
2017-10-15T07:01:30.946Z,71.60
2017-10-15T07:03:58.401Z,71.50
2017-10-15T07:06:25.898Z,71.50
2017-10-15T07:08:53.405Z,71.50
2017-10-15T07:11:21.629Z,71.40
2017-10-15T07:13:49.106Z,71.40
2017-10-15T07:16:16.614Z,71.40
2017-10-15T07:18:44.830Z,71.50
2017-10-15T07:21:12.281Z,71.50
2017-10-15T07:23:39.757Z,71.30
2017-10-15T07:26:08.925Z,71.20
2017-10-15T07:28:36.425Z,71.20
2017-10-15T07:31:04.108Z,71.10
2017-10-15T07:33:31.821Z,71.00
2017-10-15T07:35:59.749Z,71.00
2017-10-15T07:38:27.497Z,70.90
2017-10-15T07:40:55.825Z,71.00
2017-10-15T07:43:23.395Z,70.90
2017-10-15T07:45:51.142Z,70.90
2017-10-15T07:48:18.629Z,70.80
2017-10-15T07:50:46.093Z,70.90
2017-10-15T07:53:13.959Z,70.90
2017-10-15T07:55:41.540Z,70.80
2017-10-15T07:58:09.800Z,70.70
2017-10-15T08:00:37.326Z,70.70
2017-10-15T08:03:04.868Z,70.80
2017-10-15T08:05:32.348Z,70.70
2017-10-15T08:08:00.182Z,70.80
2017-10-15T08:10:27.760Z,70.70
2017-10-15T08:12:55.208Z,70.90
2017-10-15T08:15:23.056Z,70.80
2017-10-15T08:17:50.839Z,70.80
2017-10-15T08:20:18.353Z,70.70
2017-10-15T08:22:45.818Z,70.80
2017-10-15T08:25:13.379Z,70.70
2017-10-15T08:27:41.036Z,70.80
2017-10-15T08:30:10.409Z,70.80
2017-10-15T08:32:37.991Z,70.70
2017-10-15T08:35:05.504Z,70.70
2017-10-15T08:37:33.364Z,70.80
2017-10-15T08:40:01.169Z,70.60
2017-10-15T08:42:28.777Z,70.70
2017-10-15T08:44:56.423Z,70.70
2017-10-15T08:47:25.050Z,70.70
2017-10-15T08:49:53.569Z,70.60
2017-10-15T08:52:21.136Z,70.60
2017-10-15T08:54:48.670Z,70.70
2017-10-15T08:57:16.160Z,70.60
2017-10-15T08:59:43.658Z,70.60
2017-10-15T09:02:11.881Z,70.60
2017-10-15T09:04:40.158Z,70.60
2017-10-15T09:07:07.622Z,70.50
2017-10-15T09:09:35.089Z,70.40
2017-10-15T09:12:03.345Z,70.40
2017-10-15T09:14:30.805Z,70.20
2017-10-15T09:16:58.265Z,70.30
2017-10-15T09:19:25.747Z,70.20
2017-10-15T09:21:53.200Z,70.10
2017-10-15T09:24:20.668Z,70.80
2017-10-15T09:26:48.150Z,70.00
2017-10-15T09:29:16.450Z,69.80
2017-10-15T09:31:43.929Z,69.80
2017-10-15T09:34:11.414Z,69.90
2017-10-15T09:36:38.897Z,69.70
2017-10-15T09:39:06.354Z,69.60
2017-10-15T09:41:33.806Z,69.40
2017-10-15T09:44:01.289Z,69.40
2017-10-15T09:46:28.844Z,69.30
2017-10-15T09:48:57.094Z,69.10
2017-10-15T09:51:24.703Z,69.00
2017-10-15T09:53:52.162Z,69.00
2017-10-15T09:56:19.654Z,68.80
2017-10-15T09:58:47.153Z,68.80
2017-10-15T10:01:15.369Z,68.30
2017-10-15T10:03:42.861Z,68.20
2017-10-15T10:06:11.067Z,68.00
2017-10-15T10:08:38.546Z,68.00
2017-10-15T10:11:06.223Z,67.90
2017-10-15T10:13:33.849Z,67.80
2017-10-15T10:16:01.309Z,67.70
2017-10-15T10:18:28.794Z,67.50
2017-10-15T10:20:56.253Z,68.20
2017-10-15T10:23:23.921Z,67.20
2017-10-15T10:25:51.557Z,67.00
2017-10-15T10:28:19.021Z,66.80
2017-10-15T10:30:46.487Z,66.70
2017-10-15T10:33:13.985Z,66.50
2017-10-15T10:35:42.465Z,66.20
2017-10-15T10:38:09.927Z,66.20
2017-10-15T10:40:38.179Z,66.10
2017-10-15T10:43:05.674Z,66.00
2017-10-15T10:45:33.150Z,65.70
2017-10-15T10:48:01.576Z,65.30
2017-10-15T10:50:29.124Z,65.20
2017-10-15T10:52:56.574Z,65.00
2017-10-15T10:55:24.057Z,65.00
2017-10-15T10:57:51.577Z,65.00
2017-10-15T11:00:19.460Z,64.80
2017-10-15T11:02:46.950Z,64.50
2017-10-15T11:05:14.859Z,64.20
2017-10-15T11:07:43.472Z,64.00
2017-10-15T11:10:10.946Z,63.80
2017-10-15T11:12:38.641Z,63.70
2017-10-15T11:15:06.321Z,63.30
2017-10-15T11:17:35.095Z,63.90
2017-10-15T11:20:03.196Z,63.10
2017-10-15T11:22:30.696Z,62.80
2017-10-15T11:24:58.329Z,62.80
2017-10-15T11:27:26.940Z,62.60
2017-10-15T11:29:54.872Z,63.30
2017-10-15T11:32:22.836Z,62.40
2017-10-15T11:34:50.369Z,62.30
2017-10-15T11:37:17.913Z,62.00
2017-10-15T11:39:45.386Z,62.00
2017-10-15T11:42:12.910Z,61.30
2017-10-15T11:44:40.361Z,61.20
2017-10-15T11:47:07.947Z,60.90
2017-10-15T11:49:35.423Z,60.70
2017-10-15T11:52:02.901Z,60.70
2017-10-15T11:54:30.385Z,60.70
2017-10-15T11:56:58.062Z,60.40
2017-10-15T11:59:25.702Z,60.00
2017-10-15T12:01:53.157Z,59.80
2017-10-15T12:04:20.989Z,60.20
2017-10-15T12:06:48.650Z,59.50
2017-10-15T12:09:16.108Z,59.50
2017-10-15T12:11:43.589Z,59.60
2017-10-15T12:14:11.076Z,59.60
2017-10-15T12:16:38.760Z,59.40
2017-10-15T12:19:06.329Z,59.30
2017-10-15T12:21:33.979Z,59.10
2017-10-15T12:24:01.440Z,59.20
2017-10-15T12:26:28.944Z,59.20
2017-10-15T12:28:56.653Z,59.30
2017-10-15T12:31:24.320Z,59.40
2017-10-15T12:33:52.037Z,59.10
2017-10-15T12:36:20.386Z,58.90
2017-10-15T12:38:47.879Z,58.90
2017-10-15T12:41:15.553Z,58.90
2017-10-15T12:43:44.800Z,58.70
2017-10-15T12:46:12.631Z,58.70
2017-10-15T12:48:40.105Z,58.70
2017-10-15T12:51:07.932Z,58.50
2017-10-15T12:53:36.169Z,58.60
2017-10-15T12:56:03.633Z,58.60
2017-10-15T12:58:31.121Z,58.50
2017-10-15T13:00:58.581Z,58.20
2017-10-15T13:03:26.074Z,58.10
2017-10-15T13:05:53.572Z,58.10
2017-10-15T13:08:21.049Z,57.90
2017-10-15T13:10:48.509Z,57.70
2017-10-15T13:13:15.994Z,57.50
2017-10-15T13:15:45.178Z,57.40
2017-10-15T13:18:12.634Z,57.40
2017-10-15T13:20:40.094Z,57.10
2017-10-15T13:23:08.130Z,57.20
2017-10-15T13:25:35.641Z,57.10
2017-10-15T13:28:03.099Z,55.40
2017-10-15T13:30:31.352Z,49.90
2017-10-15T13:32:59.500Z,50.30
2017-10-15T13:35:27.265Z,47.10
2017-10-15T13:37:54.793Z,44.80
2017-10-15T13:40:22.333Z,42.80
2017-10-15T13:42:50.555Z,37.20
2017-10-15T13:45:18.141Z,37.00
2017-10-15T13:47:45.612Z,36.10
2017-10-15T13:50:13.300Z,35.10
2017-10-15T13:52:41.097Z,33.30
2017-10-15T13:55:08.708Z,32.80
2017-10-15T13:57:36.181Z,31.90
2017-10-15T14:00:03.681Z,30.80
2017-10-15T14:02:31.200Z,30.60
2017-10-15T14:04:59.548Z,30.00
2017-10-15T14:07:27.130Z,29.90
2017-10-15T14:09:55.931Z,29.30
2017-10-15T14:12:23.536Z,29.20
2017-10-15T14:14:51.077Z,29.10
2017-10-15T14:17:18.927Z,29.10
2017-10-15T14:19:46.405Z,28.90
2017-10-15T14:22:13.898Z,29.10
2017-10-15T14:24:41.537Z,28.90
2017-10-15T14:27:09.032Z,28.40
2017-10-15T14:29:36.581Z,28.80
2017-10-15T14:32:04.174Z,28.80
2017-10-15T14:34:32.446Z,28.40
2017-10-15T14:37:00.751Z,29.00
2017-10-15T14:39:28.336Z,28.60
2017-10-15T14:41:55.845Z,28.60
2017-10-15T14:44:24.077Z,28.50
2017-10-15T14:46:51.968Z,28.50
2017-10-15T14:49:19.612Z,28.90
2017-10-15T14:51:48.332Z,29.30
2017-10-15T14:54:15.910Z,29.20
2017-10-15T14:56:43.524Z,29.80
2017-10-15T14:59:11.057Z,30.70
2017-10-15T15:01:38.496Z,32.10
2017-10-15T15:04:05.984Z,33.50
2017-10-15T15:06:33.432Z,33.70
2017-10-15T15:09:00.978Z,34.20
2017-10-15T15:11:28.474Z,35.00
2017-10-15T15:13:55.938Z,35.70
2017-10-15T15:16:23.460Z,36.40
2017-10-15T15:18:50.932Z,36.50
2017-10-15T15:21:18.411Z,36.60
2017-10-15T15:23:46.443Z,37.10
2017-10-15T15:26:13.904Z,37.80
2017-10-15T15:28:41.407Z,38.50
2017-10-15T15:31:08.881Z,39.40
2017-10-15T15:33:36.648Z,40.10
2017-10-15T15:36:04.457Z,40.70
2017-10-15T15:38:33.187Z,41.30
2017-10-15T15:41:00.927Z,42.00
2017-10-15T15:43:28.406Z,42.40
2017-10-15T15:45:55.898Z,42.90
2017-10-15T15:48:23.704Z,43.50
2017-10-15T15:50:51.594Z,44.00
2017-10-15T15:53:19.065Z,44.80
2017-10-15T15:55:47.054Z,45.40
2017-10-15T15:58:14.699Z,46.00
2017-10-15T16:00:42.613Z,46.50
2017-10-15T16:03:10.120Z,47.10
2017-10-15T16:05:37.585Z,47.80
2017-10-15T16:08:05.051Z,48.30
2017-10-15T16:10:32.558Z,48.80
2017-10-15T16:13:00.027Z,49.30
2017-10-15T16:15:27.483Z,49.80
2017-10-15T16:17:54.961Z,50.70
2017-10-15T16:20:22.466Z,50.40
2017-10-15T16:22:49.943Z,50.80
2017-10-15T16:25:17.519Z,51.20
2017-10-15T16:27:45.006Z,51.40
2017-10-15T16:30:12.461Z,51.70
2017-10-15T16:32:39.945Z,52.00
2017-10-15T16:35:08.166Z,52.60
2017-10-15T16:37:35.641Z,52.60
2017-10-15T16:40:03.121Z,52.90
2017-10-15T16:42:30.609Z,53.10
2017-10-15T16:44:58.067Z,53.50
2017-10-15T16:47:26.298Z,53.90
2017-10-15T16:49:53.778Z,54.00
2017-10-15T16:52:21.245Z,54.20
2017-10-15T16:54:49.493Z,54.70
2017-10-15T16:57:17.883Z,54.60
2017-10-15T16:59:45.449Z,55.00
2017-10-15T17:02:12.916Z,55.10
2017-10-15T17:04:40.410Z,55.30
2017-10-15T17:07:07.856Z,55.50
2017-10-15T17:09:35.327Z,55.70
2017-10-15T17:12:02.809Z,55.90
2017-10-15T17:14:30.262Z,56.10
2017-10-15T17:16:57.753Z,56.20
2017-10-15T17:19:25.209Z,56.30
2017-10-15T17:21:53.262Z,56.60
2017-10-15T17:24:20.990Z,56.70
2017-10-15T17:26:48.811Z,56.90
2017-10-15T17:29:17.207Z,56.80
2017-10-15T17:31:45.217Z,57.10
2017-10-15T17:34:12.855Z,57.20
2017-10-15T17:36:40.864Z,57.40
2017-10-15T17:39:08.625Z,57.40
2017-10-15T17:41:36.379Z,57.50
2017-10-15T17:44:04.197Z,57.60
2017-10-15T17:46:31.918Z,57.70
2017-10-15T17:48:59.521Z,57.90
2017-10-15T17:51:27.022Z,57.90
2017-10-15T17:53:54.480Z,58.00
2017-10-15T17:56:21.942Z,58.10
2017-10-15T17:58:49.424Z,58.20
2017-10-15T18:01:16.911Z,58.10
2017-10-15T18:03:44.389Z,58.30
2017-10-15T18:06:11.879Z,58.30
2017-10-15T18:08:39.336Z,58.30
2017-10-15T18:11:06.784Z,58.40
2017-10-15T18:13:34.261Z,58.50
2017-10-15T18:16:01.750Z,58.60
2017-10-15T18:18:29.205Z,58.50
2017-10-15T18:20:56.670Z,58.50
2017-10-15T18:23:24.208Z,58.60
2017-10-15T18:25:51.669Z,58.60
2017-10-15T18:28:19.649Z,58.50
2017-10-15T18:30:47.110Z,58.60
2017-10-15T18:33:14.570Z,58.70
2017-10-15T18:35:42.062Z,58.70
2017-10-15T18:38:10.289Z,58.80
2017-10-15T18:40:38.168Z,58.70
2017-10-15T18:43:06.468Z,59.50
2017-10-15T18:45:33.951Z,58.90
2017-10-15T18:48:02.218Z,59.10
2017-10-15T18:50:30.465Z,59.20
2017-10-15T18:52:58.517Z,59.20
2017-10-15T18:55:26.557Z,59.20
2017-10-15T18:57:54.060Z,59.30
2017-10-15T19:00:21.521Z,59.30
2017-10-15T19:02:49.392Z,59.30
2017-10-15T19:05:16.866Z,59.30
2017-10-15T19:07:44.374Z,59.30
2017-10-15T19:10:11.821Z,59.20
2017-10-15T19:12:39.360Z,59.30
2017-10-15T19:15:07.141Z,59.30
2017-10-15T19:17:34.631Z,59.30
2017-10-15T19:20:02.171Z,59.30
2017-10-15T19:22:30.143Z,59.30
2017-10-15T19:24:57.613Z,59.40
2017-10-15T19:27:25.065Z,59.40
2017-10-15T19:29:52.544Z,59.40
2017-10-15T19:32:21.788Z,59.50
2017-10-15T19:34:49.809Z,59.60
2017-10-15T19:37:18.093Z,59.70
2017-10-15T19:39:45.708Z,59.70
2017-10-15T19:42:13.194Z,59.80
2017-10-15T19:44:40.649Z,59.80
2017-10-15T19:47:08.431Z,59.80
2017-10-15T19:49:36.758Z,59.80
2017-10-15T19:52:05.029Z,59.80
2017-10-15T19:54:33.732Z,59.80
2017-10-15T19:57:01.245Z,59.80
2017-10-15T19:59:28.814Z,59.70
2017-10-15T20:01:56.332Z,59.70
2017-10-15T20:04:23.797Z,59.60
2017-10-15T20:06:51.456Z,59.50
2017-10-15T20:09:19.228Z,59.50
2017-10-15T20:11:46.935Z,59.50
2017-10-15T20:14:15.251Z,59.30
2017-10-15T20:16:42.783Z,59.30
2017-10-15T20:19:11.037Z,59.20
2017-10-15T20:21:38.529Z,59.20
2017-10-15T20:24:06.775Z,59.10
2017-10-15T20:26:34.245Z,59.10
2017-10-15T20:29:01.735Z,59.10
2017-10-15T20:31:29.193Z,59.00
2017-10-15T20:33:56.677Z,58.90
2017-10-15T20:36:24.133Z,59.00
2017-10-15T20:38:51.746Z,58.90
2017-10-15T20:41:20.011Z,58.80
2017-10-15T20:43:47.493Z,58.80
2017-10-15T20:46:15.742Z,58.90
2017-10-15T20:48:43.202Z,58.90
2017-10-15T20:51:10.686Z,58.90
2017-10-15T20:53:38.987Z,58.90
2017-10-15T20:56:06.460Z,58.90
2017-10-15T20:58:33.937Z,58.90
2017-10-15T21:01:01.418Z,58.80
2017-10-15T21:03:28.886Z,58.90
2017-10-15T21:05:56.361Z,59.00
2017-10-15T21:08:23.930Z,59.60
2017-10-15T21:10:52.181Z,59.10
2017-10-15T21:13:20.437Z,59.20
2017-10-15T21:15:47.894Z,59.20
2017-10-15T21:18:15.363Z,59.20
2017-10-15T21:20:42.858Z,59.30
2017-10-15T21:23:10.324Z,59.30
2017-10-15T21:28:11.738Z,59.30
2017-10-15T21:30:39.252Z,59.30
2017-10-15T21:33:06.692Z,59.40
2017-10-15T21:35:34.154Z,59.40
2017-10-15T21:38:01.635Z,60.00
2017-10-15T21:40:29.132Z,59.50
2017-10-15T21:42:56.618Z,59.50
2017-10-15T21:45:24.106Z,59.50
2017-10-15T21:47:51.607Z,59.60
2017-10-15T21:50:19.126Z,59.60
2017-10-15T21:52:46.620Z,59.70
2017-10-15T21:55:14.073Z,59.70
2017-10-15T21:57:41.558Z,59.70
2017-10-15T22:00:09.015Z,59.80
2017-10-15T22:02:36.513Z,59.90
2017-10-15T22:05:03.994Z,59.90
2017-10-15T22:07:31.455Z,60.00
2017-10-15T22:09:59.092Z,59.90
2017-10-15T22:12:26.550Z,60.00
2017-10-15T22:14:54.035Z,60.10
2017-10-15T22:17:22.251Z,60.30
2017-10-15T22:19:49.737Z,60.20
2017-10-15T22:22:22.807Z,60.30
2017-10-15T22:24:51.032Z,60.50
2017-10-15T22:27:18.502Z,60.50
2017-10-15T22:29:46.024Z,60.60
2017-10-15T22:32:13.510Z,60.50
2017-10-15T22:34:40.992Z,60.70
2017-10-15T22:37:08.453Z,60.70
2017-10-15T22:39:35.930Z,60.90
2017-10-15T22:42:03.416Z,60.80
2017-10-15T22:44:30.891Z,61.70
2017-10-15T22:46:58.382Z,61.00
2017-10-15T22:49:25.875Z,61.10
2017-10-15T22:51:54.036Z,61.10
2017-10-15T22:54:21.493Z,61.20
2017-10-15T22:56:48.983Z,61.10
2017-10-15T22:59:16.505Z,61.20
2017-10-15T23:01:44.762Z,60.90
2017-10-15T23:04:12.260Z,61.30
2017-10-15T23:06:40.487Z,61.50
2017-10-15T23:09:07.950Z,61.50
2017-10-15T23:11:35.486Z,61.60
2017-10-15T23:14:02.941Z,61.60
2017-10-15T23:16:30.397Z,61.80
2017-10-15T23:18:57.886Z,61.80
2017-10-15T23:21:25.353Z,61.90
2017-10-15T23:23:52.841Z,61.90
2017-10-15T23:26:20.393Z,62.00
2017-10-15T23:28:48.670Z,62.10
2017-10-15T23:31:16.924Z,62.10
2017-10-15T23:33:44.396Z,62.00
2017-10-15T23:36:11.866Z,62.10
2017-10-15T23:38:40.106Z,62.40
2017-10-15T23:41:07.593Z,62.30
2017-10-15T23:43:35.822Z,62.60
2017-10-15T23:46:04.090Z,62.60
2017-10-15T23:48:31.594Z,62.60
2017-10-15T23:50:59.067Z,62.50
2017-10-15T23:53:27.302Z,62.60
2017-10-15T23:55:55.352Z,62.60
2017-10-15T23:58:22.898Z,63.00
